Time;durP1;ratioP1;P1;durP2;ratioP2;P2;SDS_P1;SDS_P2;PMS_P1;PMS_P2;Temp;Humidity;BMP_temperature;BMP_pressure;BME280_temperature;BME280_humidity;BME280_pressure;Samples;Min_cycle;Max_cycle;Signal;HPM_P1;HPM_P2
2023/03/21 00:00:39;;;;;;;7.88;4.85;;;;;;;17.92;49.34;101710.69;5026088;28;20455;-36
2023/03/21 00:03:06;;;;;;;6.65;4.95;;;;;;;17.92;49.27;101694.59;5019395;28;20057;-35
2023/03/21 00:05:32;;;;;;;7.00;5.00;;;;;;;17.92;49.39;101696.44;5023781;28;20053;-36
2023/03/21 00:07:59;;;;;;;6.43;4.82;;;;;;;17.92;49.76;101699.13;5025144;28;20054;-35
2023/03/21 00:10:28;;;;;;;7.72;5.13;;;;;;;17.90;49.60;101701.94;5022956;28;20049;-36
2023/03/21 00:13:06;;;;;;;7.13;4.93;;;;;;;17.90;49.33;101701.09;5022961;28;20050;-37
2023/03/21 00:15:33;;;;;;;6.43;4.53;;;;;;;17.89;49.53;101689.53;5020585;28;20527;-36
2023/03/21 00:18:21;;;;;;;6.38;4.60;;;;;;;17.89;49.57;101691.31;5022971;28;20058;-36
2023/03/21 00:20:59;;;;;;;6.85;4.00;;;;;;;17.86;49.29;101696.97;5024495;28;20045;-35
2023/03/21 00:23:47;;;;;;;7.28;4.22;;;;;;;17.87;49.34;101690.63;5027077;28;20053;-36
2023/03/21 00:26:14;;;;;;;7.07;4.22;;;;;;;17.88;49.44;101689.63;5028255;28;20068;-35
2023/03/21 00:28:42;;;;;;;6.82;4.53;;;;;;;17.86;49.39;101686.25;5024764;28;20091;-36
2023/03/21 00:31:09;;;;;;;7.93;4.95;;;;;;;17.85;49.44;101681.84;5027728;28;20037;-35
2023/03/21 00:33:37;;;;;;;6.38;3.83;;;;;;;17.85;49.24;101684.53;5026619;28;20045;-36
2023/03/21 00:36:05;;;;;;;7.00;4.80;;;;;;;17.83;49.72;101689.19;5025733;28;20137;-35
2023/03/21 00:38:33;;;;;;;8.27;5.20;;;;;;;17.82;49.48;101680.28;5024809;28;20068;-35
2023/03/21 00:41:03;;;;;;;5.95;4.53;;;;;;;17.81;49.68;101680.41;5026169;28;20084;-37
2023/03/21 00:43:42;;;;;;;6.53;4.15;;;;;;;17.81;49.61;101678.59;5029002;28;20135;-36
2023/03/21 00:46:09;;;;;;;5.78;4.38;;;;;;;17.81;49.58;101675.03;5026100;28;20059;-36
2023/03/21 00:48:36;;;;;;;6.93;4.30;;;;;;;17.81;49.42;101673.25;5024924;28;20051;-36
2023/03/21 00:51:20;;;;;;;4.95;3.83;;;;;;;17.80;49.35;101670.66;5019856;28;20045;-37
2023/03/21 00:53:46;;;;;;;;;;;;;;;17.79;49.39;101671.66;5023584;28;20393;-35
2023/03/21 00:56:13;;;;;;;5.15;3.65;;;;;;;17.82;49.28;101666.88;5023957;28;19989;-36
2023/03/21 00:58:39;;;;;;;9.60;4.60;;;;;;;17.82;49.45;101660.69;5024062;28;20057;-36
2023/03/21 01:01:08;;;;;;;5.50;3.97;;;;;;;17.79;49.22;101660.94;5021246;28;20046;-36
2023/03/21 01:03:41;;;;;;;5.40;3.75;;;;;;;17.79;49.44;101660.94;5024756;28;20054;-37
2023/03/21 01:06:12;;;;;;;5.80;4.00;;;;;;;17.77;49.26;101653.03;5022337;28;20065;-35
2023/03/21 01:08:41;;;;;;;6.22;3.67;;;;;;;17.78;49.25;101648.53;5025448;28;20491;-35
2023/03/21 01:11:21;;;;;;;5.40;3.50;;;;;;;17.75;49.11;101649.63;5017615;28;20053;-35
2023/03/21 01:13:48;;;;;;;4.70;3.72;;;;;;;17.74;49.20;101643.41;5020854;28;20063;-35
2023/03/21 01:16:35;;;;;;;5.18;3.80;;;;;;;17.74;49.41;101639.84;5021814;28;20045;-36
2023/03/21 01:19:03;;;;;;;5.53;3.75;;;;;;;17.72;49.37;101634.59;5019867;28;20057;-36
2023/03/21 01:21:33;;;;;;;6.68;4.00;;;;;;;17.71;49.50;101632.91;5018838;28;20058;-34
2023/03/21 01:24:00;;;;;;;4.68;3.53;;;;;;;17.70;49.55;101633.91;5018602;28;20055;-36
2023/03/21 01:26:27;;;;;;;6.18;4.07;;;;;;;17.69;49.42;101629.53;5021885;28;20049;-35
2023/03/21 01:28:54;;;;;;;7.55;3.80;;;;;;;17.69;49.45;101628.69;5025206;28;20054;-36
2023/03/21 01:31:20;;;;;;;5.45;3.47;;;;;;;17.68;49.52;101625.13;5022812;28;20046;-36
2023/03/21 01:33:47;;;;;;;5.07;3.38;;;;;;;17.68;49.51;101624.28;5021055;28;20049;-35
2023/03/21 01:36:17;;;;;;;5.00;3.58;;;;;;;17.66;49.63;101619.06;5023174;28;20336;-35
2023/03/21 01:38:47;;;;;;;;;;;;;;;17.64;49.86;101620.16;5022902;28;20406;-34
2023/03/21 01:41:32;;;;;;;5.28;3.40;;;;;;;17.66;49.86;101608.34;5023251;28;19935;-34
2023/03/21 01:44:18;;;;;;;;;;;;;;;17.66;49.76;101612.84;5019901;28;20434;-36
2023/03/21 01:46:48;;;;;;;4.57;3.47;;;;;;;17.68;49.10;101603.69;5021880;28;19921;-36
2023/03/21 01:49:46;;;;;;;4.45;3.53;;;;;;;17.64;49.58;101607.59;5021475;28;20069;-35
2023/03/21 01:52:18;;;;;;;4.47;3.15;;;;;;;17.64;49.61;101602.25;5017395;28;20053;-36
2023/03/21 01:55:03;;;;;;;5.82;3.80;;;;;;;17.63;49.64;101605.91;5024591;28;20128;-37
2023/03/21 01:57:38;;;;;;;6.65;3.47;;;;;;;17.61;49.64;101604.34;5020172;28;20057;-36
2023/03/21 02:00:14;;;;;;;4.72;3.28;;;;;;;17.61;49.83;101602.53;5020946;28;20049;-36
2023/03/21 02:02:54;;;;;;;4.90;3.05;;;;;;;17.60;49.53;101598.13;5020411;28;20048;-37
2023/03/21 02:06:09;;;;;;;4.93;3.35;;;;;;;17.60;49.87;101603.50;5020942;28;20054;-38
2023/03/21 02:08:36;;;;;;;5.95;3.15;;;;;;;17.59;49.72;101588.41;5016107;28;20045;-37
2023/03/21 02:11:06;;;;;;;4.18;2.92;;;;;;;17.60;49.18;101591.94;5022426;28;20053;-35
2023/03/21 02:13:34;;;;;;;5.45;3.75;;;;;;;17.58;49.73;101581.34;5022123;28;20072;-35
2023/03/21 02:16:14;;;;;;;6.55;3.38;;;;;;;17.57;49.59;101581.47;5030924;28;20053;-35
2023/03/21 02:18:49;;;;;;;6.18;3.80;;;;;;;17.57;49.50;101574.28;5023787;28;20132;-35
2023/03/21 02:21:46;;;;;;;6.13;4.05;;;;;;;17.56;49.74;101571.72;5030134;28;20080;-36
2023/03/21 02:24:40;;;;;;;6.85;4.22;;;;;;;17.57;49.20;101568.06;5028530;28;20054;-35
2023/03/21 02:27:20;;;;;;;5.15;3.20;;;;;;;17.57;49.47;101566.25;5026360;28;20441;-36
2023/03/21 02:30:00;;;;;;;4.00;3.38;;;;;;;17.56;49.49;101566.38;5021764;28;20050;-35
2023/03/21 02:33:07;;;;;;;4.43;3.10;;;;;;;17.55;49.63;101567.34;5024989;28;20338;-36
2023/03/21 02:35:52;;;;;;;5.65;3.55;;;;;;;17.56;49.68;101569.03;5022417;28;20065;-36
2023/03/21 02:38:31;;;;;;;4.75;3.00;;;;;;;17.57;49.51;101565.38;5020757;28;20048;-38
2023/03/21 02:41:08;;;;;;;4.88;2.85;;;;;;;17.56;49.56;101559.16;5020010;28;20038;-36
2023/03/21 02:44:07;;;;;;;6.75;4.18;;;;;;;17.55;49.86;101557.47;5022046;28;20092;-36
2023/03/21 02:46:45;;;;;;;5.60;3.20;;;;;;;17.56;49.53;101550.28;5020917;28;20052;-36
2023/03/21 02:49:41;;;;;;;5.10;3.25;;;;;;;17.56;49.45;101552.97;5018944;28;20077;-36
2023/03/21 02:52:14;;;;;;;7.60;3.70;;;;;;;17.55;49.10;101554.78;5022491;28;20045;-36
2023/03/21 02:55:03;;;;;;;7.55;3.50;;;;;;;17.54;49.35;101545.06;5023279;28;20602;-36
2023/03/21 02:57:31;;;;;;;5.03;3.08;;;;;;;17.54;49.65;101547.75;5023363;28;20429;-36
2023/03/21 03:00:11;;;;;;;6.28;3.30;;;;;;;17.54;49.24;101544.22;5025243;28;20057;-36
2023/03/21 03:02:42;;;;;;;4.65;3.00;;;;;;;17.52;49.39;101545.19;5024344;28;20519;-36
2023/03/21 03:05:16;;;;;;;5.78;2.97;;;;;;;17.52;49.69;101541.66;5022062;28;20058;-36
2023/03/21 03:08:16;;;;;;;6.38;2.67;;;;;;;17.50;49.19;101549.00;5021420;28;20347;-37
2023/03/21 03:10:55;;;;;;;3.88;2.90;;;;;;;17.51;49.63;101543.50;5025522;28;20063;-37
2023/03/21 03:13:45;;;;;;;4.97;3.20;;;;;;;17.50;49.70;101540.97;5022217;28;20049;-37
2023/03/21 03:16:35;;;;;;;3.60;2.53;;;;;;;17.51;49.40;101537.28;5023650;28;20080;-36
2023/03/21 03:19:07;;;;;;;6.07;2.58;;;;;;;17.50;49.44;101547.16;5025232;28;20042;-36
2023/03/21 03:21:55;;;;;;;4.30;2.53;;;;;;;17.47;49.50;101535.84;5024359;28;20049;-36
2023/03/21 03:24:37;;;;;;;6.50;3.05;;;;;;;17.48;49.63;101540.22;5023607;28;20152;-36
2023/03/21 03:27:14;;;;;;;4.35;2.88;;;;;;;17.48;49.83;101540.22;5023150;28;20049;-37
2023/03/21 03:29:43;;;;;;;4.05;2.90;;;;;;;17.48;49.54;101537.53;5019561;28;20418;-37
2023/03/21 03:32:15;;;;;;;4.18;2.42;;;;;;;17.47;49.67;101533.16;5022723;28;20441;-35
2023/03/21 03:34:48;;;;;;;5.03;2.50;;;;;;;17.47;49.32;101527.81;5021697;28;20350;-35
2023/03/21 03:37:20;;;;;;;5.78;3.33;;;;;;;17.47;49.40;101527.81;5023213;28;20073;-35
2023/03/21 03:39:56;;;;;;;4.72;2.50;;;;;;;17.46;49.51;101526.13;5019439;28;20045;-37
2023/03/21 03:42:29;;;;;;;3.40;2.15;;;;;;;17.46;49.67;101532.34;5021708;28;20136;-39
2023/03/21 03:44:56;;;;;;;5.35;3.03;;;;;;;17.44;49.70;101523.56;5028757;28;20064;-36
2023/03/21 03:47:33;;;;;;;4.88;2.88;;;;;;;17.44;49.60;101525.41;5020918;28;20057;-36
2023/03/21 03:50:18;;;;;;;4.30;2.60;;;;;;;17.46;49.62;101520.75;5022888;28;20049;-36
2023/03/21 03:52:51;;;;;;;6.50;2.60;;;;;;;17.44;49.31;101523.56;5018956;28;20045;-36
2023/03/21 03:55:26;;;;;;;5.63;2.40;;;;;;;17.46;49.49;101528.81;5022836;28;20402;-36
2023/03/21 03:57:54;;;;;;;5.65;2.65;;;;;;;17.43;49.74;101527.22;5022992;28;20326;-35
2023/03/21 04:00:20;;;;;;;5.40;2.72;;;;;;;17.44;49.36;101517.34;5021339;28;20132;-35
2023/03/21 04:02:47;;;;;;;4.70;3.10;;;;;;;17.44;49.54;101520.03;5023968;28;20127;-35
2023/03/21 04:05:14;;;;;;;6.45;3.05;;;;;;;17.43;49.73;101518.34;5022081;28;20054;-35
2023/03/21 04:07:40;;;;;;;5.78;2.80;;;;;;;17.43;49.42;101521.03;5023031;28;20421;-36
2023/03/21 04:10:07;;;;;;;7.00;3.28;;;;;;;17.43;49.77;101518.34;5019155;28;20049;-35
2023/03/21 04:12:34;;;;;;;3.97;2.72;;;;;;;17.42;49.53;101516.66;5022998;28;20042;-35
2023/03/21 04:15:01;;;;;;;4.60;2.65;;;;;;;17.40;49.56;101514.09;5021451;28;20439;-35
2023/03/21 04:17:38;;;;;;;4.75;2.60;;;;;;;17.41;49.20;101517.66;5027028;28;20045;-35
2023/03/21 04:20:06;;;;;;;4.88;2.80;;;;;;;17.40;49.45;101511.41;5023580;28;20169;-36
2023/03/21 04:22:42;;;;;;;5.32;3.00;;;;;;;17.39;49.55;101507.03;5025256;28;20058;-35
2023/03/21 04:25:09;;;;;;;6.32;2.78;;;;;;;17.39;49.75;101501.69;5024287;28;20049;-36
2023/03/21 04:27:36;;;;;;;7.07;3.10;;;;;;;17.38;49.95;101497.31;5026143;28;20057;-36
2023/03/21 04:30:04;;;;;;;5.68;2.88;;;;;;;17.39;49.51;101504.34;5022893;28;20050;-38
2023/03/21 04:32:32;;;;;;;3.85;2.50;;;;;;;17.38;49.59;101501.81;5024402;28;20505;-39
2023/03/21 04:34:59;;;;;;;7.03;3.17;;;;;;;17.38;49.75;101507.19;5026859;28;20057;-35
2023/03/21 04:37:26;;;;;;;5.90;2.50;;;;;;;17.38;49.88;101502.66;5022986;28;20087;-37
2023/03/21 04:39:53;;;;;;;5.85;3.15;;;;;;;17.37;49.36;101500.13;5023754;28;20140;-39
2023/03/21 04:42:20;;;;;;;6.43;2.75;;;;;;;17.38;49.45;101497.31;5026159;28;21333;-36
2023/03/21 04:44:48;;;;;;;6.75;3.00;;;;;;;17.37;49.58;101502.81;5020879;28;20046;-36
2023/03/21 04:47:14;;;;;;;5.85;2.58;;;;;;;17.36;49.58;101506.44;5023321;28;20053;-35
2023/03/21 04:49:42;;;;;;;5.43;3.50;;;;;;;17.36;49.34;101503.78;5015787;28;20049;-36
2023/03/21 04:52:08;;;;;;;4.90;2.88;;;;;;;17.35;49.66;101502.94;5020288;28;20099;-36
2023/03/21 04:54:35;;;;;;;5.60;3.08;;;;;;;17.35;49.20;101496.72;5016103;28;20301;-36
2023/03/21 04:57:03;;;;;;;6.72;3.30;;;;;;;17.36;49.55;101498.41;5019110;28;20048;-36
2023/03/21 04:59:30;;;;;;;6.55;3.20;;;;;;;17.35;49.66;101491.38;5024559;28;20053;-38
2023/03/21 05:01:57;;;;;;;6.60;2.70;;;;;;;17.34;49.14;101489.69;5023710;28;20050;-39
2023/03/21 05:04:26;;;;;;;5.63;3.17;;;;;;;17.34;49.47;101495.03;5024016;28;20689;-35
2023/03/21 05:06:53;;;;;;;7.00;3.33;;;;;;;17.34;49.12;101484.31;5025811;28;20128;-36
2023/03/21 05:09:21;;;;;;;5.93;3.30;;;;;;;17.34;49.40;101492.34;5025304;28;20049;-37
2023/03/21 05:11:48;;;;;;;8.35;3.72;;;;;;;17.35;49.43;101489.53;5022515;28;20049;-36
2023/03/21 05:14:17;;;;;;;7.43;3.25;;;;;;;17.34;49.73;101490.53;5019169;28;20053;-35
2023/03/21 05:16:47;;;;;;;6.93;3.03;;;;;;;17.35;49.32;101486.00;5021646;28;20469;-35
2023/03/21 05:19:16;;;;;;;5.20;3.03;;;;;;;17.35;49.48;101488.69;5019584;28;20053;-36
2023/03/21 05:21:43;;;;;;;9.63;3.95;;;;;;;17.33;49.28;101472.75;5023642;28;20343;-35
2023/03/21 05:24:13;;;;;;;6.28;3.55;;;;;;;17.33;49.66;101478.13;5025633;28;20052;-35
2023/03/21 05:26:42;;;;;;;6.05;3.00;;;;;;;17.33;49.11;101475.44;5026543;28;20332;-35
2023/03/21 05:29:10;;;;;;;5.78;3.05;;;;;;;17.32;49.58;101480.91;5022250;28;20050;-36
2023/03/21 05:31:36;;;;;;;4.03;2.88;;;;;;;17.33;49.68;101472.75;5025112;28;20497;-36
2023/03/21 05:34:03;;;;;;;7.88;3.10;;;;;;;17.33;49.59;101471.91;5023335;28;20132;-36
2023/03/21 05:36:32;;;;;;;5.57;3.00;;;;;;;17.33;49.57;101477.28;5023950;28;20046;-36
2023/03/21 05:39:00;;;;;;;5.57;3.10;;;;;;;17.32;49.41;101470.19;5024613;28;20053;-36
2023/03/21 05:41:27;;;;;;;5.97;2.80;;;;;;;17.33;49.41;101471.91;5024135;28;20050;-37
2023/03/21 05:43:54;;;;;;;7.47;3.30;;;;;;;17.33;49.56;101467.41;5024634;28;20049;-36
2023/03/21 05:46:20;;;;;;;4.57;2.90;;;;;;;17.32;49.49;101467.50;5023302;28;20049;-35
2023/03/21 05:48:47;;;;;;;4.75;2.75;;;;;;;17.31;49.41;101460.47;5020484;28;20096;-35
2023/03/21 05:51:14;;;;;;;4.85;2.67;;;;;;;17.32;49.66;101467.50;5022044;28;20053;-35
2023/03/21 05:53:40;;;;;;;6.32;3.13;;;;;;;17.34;49.73;101473.59;5018649;28;20045;-36
2023/03/21 05:56:07;;;;;;;5.90;3.05;;;;;;;17.33;49.42;101466.56;5021646;28;20457;-36
2023/03/21 05:58:34;;;;;;;6.13;3.08;;;;;;;17.33;48.65;101469.22;5024519;28;20077;-35
2023/03/21 06:01:00;;;;;;;5.88;2.88;;;;;;;17.31;49.27;101469.34;5025529;28;20422;-36
2023/03/21 06:03:27;;;;;;;5.28;2.70;;;;;;;17.33;49.46;101474.59;5027325;28;20038;-35
2023/03/21 06:05:54;;;;;;;5.18;2.88;;;;;;;17.33;49.17;101471.91;5025815;28;20128;-35
2023/03/21 06:08:20;;;;;;;6.68;3.15;;;;;;;17.34;49.71;101470.91;5023849;28;20182;-35
2023/03/21 06:10:47;;;;;;;6.03;3.15;;;;;;;17.34;49.39;101473.59;5026053;28;20048;-35
2023/03/21 06:13:14;;;;;;;4.78;2.50;;;;;;;17.34;49.47;101473.59;5026171;28;20049;-35
2023/03/21 06:15:41;;;;;;;5.55;2.72;;;;;;;17.33;49.24;101472.75;5018165;28;20402;-36
2023/03/21 06:18:07;;;;;;;4.80;2.50;;;;;;;17.34;49.48;101478.97;5018897;28;20109;-36
2023/03/21 06:20:34;;;;;;;5.15;3.10;;;;;;;17.34;48.94;101466.41;5024901;28;20451;-36
2023/03/21 06:23:00;;;;;;;5.32;2.75;;;;;;;17.33;49.68;101475.44;5024099;28;20149;-35
2023/03/21 06:25:27;;;;;;;5.15;2.75;;;;;;;17.33;49.20;101472.75;5023281;28;20049;-35
2023/03/21 06:27:54;;;;;;;5.45;2.92;;;;;;;17.35;49.36;101472.59;5028819;28;20046;-36
2023/03/21 06:30:20;;;;;;;5.53;2.40;;;;;;;17.34;49.01;101481.63;5027555;28;20047;-35
2023/03/21 06:32:47;;;;;;;7.13;2.90;;;;;;;17.33;49.30;101477.28;5031168;28;20652;-35
2023/03/21 06:35:14;;;;;;;6.32;2.67;;;;;;;17.33;49.29;101480.78;5028147;28;20349;-35
2023/03/21 06:37:41;;;;;;;5.35;2.42;;;;;;;17.35;49.55;101480.66;5027026;28;20142;-35
2023/03/21 06:40:12;;;;;;;4.25;2.88;;;;;;;17.33;49.37;101483.47;5029880;28;20068;-36
2023/03/21 06:42:39;;;;;;;3.55;2.65;;;;;;;17.34;49.08;101481.63;5031443;28;20045;-35
2023/03/21 06:45:06;;;;;;;4.93;2.95;;;;;;;17.34;49.27;101482.47;5029019;28;20060;-36
2023/03/21 06:47:32;;;;;;;4.72;2.80;;;;;;;17.35;49.00;101483.31;5028551;28;20129;-36
2023/03/21 06:49:59;;;;;;;4.85;2.90;;;;;;;17.36;49.19;101479.66;5021575;28;20128;-37
2023/03/21 06:52:26;;;;;;;5.60;2.58;;;;;;;17.34;49.28;101477.13;5026415;28;20068;-36
2023/03/21 06:54:52;;;;;;;5.45;2.65;;;;;;;17.34;49.62;101478.97;5023911;28;20049;-35
2023/03/21 06:57:20;;;;;;;5.75;2.80;;;;;;;17.34;48.69;101474.44;5029002;28;20054;-36
2023/03/21 06:59:47;;;;;;;7.28;2.85;;;;;;;17.34;49.30;101474.44;5028958;28;20055;-36
2023/03/21 07:02:14;;;;;;;7.43;2.70;;;;;;;17.34;49.45;101481.63;5029794;28;20064;-35
2023/03/21 07:04:40;;;;;;;5.90;3.15;;;;;;;17.33;49.15;101480.78;5029358;28;20480;-36
2023/03/21 07:07:07;;;;;;;4.85;2.55;;;;;;;17.34;49.39;101481.63;5027464;28;20049;-36
2023/03/21 07:09:33;;;;;;;7.45;2.78;;;;;;;17.33;48.99;101488.84;5025268;28;20053;-36
2023/03/21 07:12:00;;;;;;;6.88;2.80;;;;;;;17.33;49.00;101482.63;5027781;28;20053;-36
2023/03/21 07:14:27;;;;;;;5.65;3.05;;;;;;;17.33;49.24;101488.84;5023384;28;20070;-37
2023/03/21 07:16:53;;;;;;;4.82;2.38;;;;;;;17.33;49.02;101483.47;5022811;28;20333;-36
2023/03/21 07:19:20;;;;;;;6.85;2.80;;;;;;;17.34;49.22;101487.84;5021087;28;20058;-37
2023/03/21 07:21:46;;;;;;;5.57;2.60;;;;;;;17.35;49.12;101476.13;5028293;28;20049;-37
2023/03/21 07:24:13;;;;;;;5.72;2.50;;;;;;;17.35;49.41;101472.59;5025821;28;20060;-38
2023/03/21 07:26:39;;;;;;;5.03;2.78;;;;;;;17.35;49.09;101461.91;5028289;28;20072;-35
2023/03/21 07:29:06;;;;;;;6.20;2.80;;;;;;;17.36;48.95;101467.09;5024117;28;20368;-36
2023/03/21 07:31:34;;;;;;;3.72;2.28;;;;;;;17.37;48.87;101454.59;5021643;28;20445;-36
2023/03/21 07:34:00;;;;;;;5.05;2.63;;;;;;;17.36;48.80;101460.91;5019883;28;20046;-35
2023/03/21 07:36:27;;;;;;;5.97;3.30;;;;;;;17.36;48.78;101461.75;5029505;28;20049;-35
2023/03/21 07:38:54;;;;;;;3.55;2.05;;;;;;;17.36;48.86;101453.72;5025651;28;20059;-35
2023/03/21 07:41:20;;;;;;;4.03;2.33;;;;;;;17.36;48.96;101447.50;5024491;28;20063;-35
2023/03/21 07:43:47;;;;;;;5.85;2.55;;;;;;;17.36;49.05;101437.63;5020706;28;20132;-36
2023/03/21 07:46:13;;;;;;;6.35;2.35;;;;;;;17.36;48.83;101439.47;5023491;28;20056;-36
2023/03/21 07:48:40;;;;;;;4.97;2.40;;;;;;;17.36;49.15;101444.81;5019134;28;20053;-36
2023/03/21 07:51:06;;;;;;;4.88;2.80;;;;;;;17.37;48.94;101446.53;5031995;28;20042;-37
2023/03/21 07:53:33;;;;;;;5.28;3.13;;;;;;;17.39;48.98;101447.25;5031804;28;20049;-37
2023/03/21 07:56:00;;;;;;;5.65;2.78;;;;;;;17.39;48.93;101452.59;5031395;28;20045;-36
2023/03/21 07:58:27;;;;;;;6.70;2.60;;;;;;;17.40;48.84;101446.25;5029903;28;20429;-36
2023/03/21 08:00:57;;;;;;;7.13;2.60;;;;;;;17.41;48.86;101447.97;5025114;28;20076;-37
2023/03/21 08:03:25;;;;;;;5.72;3.00;;;;;;;17.41;49.08;101446.13;5027904;28;20092;-36
2023/03/21 08:05:51;;;;;;;5.03;2.90;;;;;;;17.41;48.88;101442.63;5026154;28;20054;-36
2023/03/21 08:08:18;;;;;;;4.47;2.40;;;;;;;17.41;48.89;101445.28;5023679;28;20057;-36
2023/03/21 08:10:45;;;;;;;4.38;2.53;;;;;;;17.42;48.71;101444.31;5023509;28;20061;-36
2023/03/21 08:13:11;;;;;;;5.78;3.22;;;;;;;17.44;48.82;101445.00;5021231;28;20079;-36
2023/03/21 08:15:40;;;;;;;5.47;3.00;;;;;;;17.44;48.84;101439.63;5023182;28;20107;-35
2023/03/21 08:18:08;;;;;;;5.75;2.65;;;;;;;17.45;48.55;101436.00;5024897;28;20053;-35
2023/03/21 08:20:35;;;;;;;5.88;2.60;;;;;;;17.45;48.94;101431.47;5022904;28;20045;-35
2023/03/21 08:23:02;;;;;;;4.72;2.63;;;;;;;17.46;48.46;101433.16;5026477;28;20333;-35
2023/03/21 08:25:28;;;;;;;8.10;2.30;;;;;;;17.47;48.71;101429.50;5024626;28;20054;-35
2023/03/21 08:27:55;;;;;;;6.00;2.92;;;;;;;17.48;48.86;101416.94;5022283;28;20057;-35
2023/03/21 08:30:25;;;;;;;4.53;2.45;;;;;;;17.48;48.64;101423.16;5020286;28;20061;-35
2023/03/21 08:32:56;;;;;;;4.88;2.22;;;;;;;17.49;48.89;101415.97;5025404;28;20134;-36
2023/03/21 08:35:27;;;;;;;4.80;2.70;;;;;;;17.50;48.89;101415.84;5024180;28;20053;-36
2023/03/21 08:37:54;;;;;;;5.05;2.55;;;;;;;17.50;48.70;101412.31;5025898;28;20099;-36
2023/03/21 08:40:20;;;;;;;5.30;2.67;;;;;;;17.50;48.81;101412.31;5026188;28;20064;-36
2023/03/21 08:42:47;;;;;;;5.45;2.42;;;;;;;17.49;48.63;101400.75;5021496;28;20042;-35
2023/03/21 08:45:16;;;;;;;7.28;3.15;;;;;;;17.50;48.70;101398.91;5023341;28;20053;-35
2023/03/21 08:47:43;;;;;;;5.60;2.22;;;;;;;17.50;48.86;101393.56;5022326;28;20467;-36
2023/03/21 08:50:13;;;;;;;3.97;2.28;;;;;;;17.50;48.70;101390.88;5025149;28;20064;-36
2023/03/21 08:52:40;;;;;;;6.13;2.85;;;;;;;17.49;48.49;101383.81;5029033;28;20046;-36
2023/03/21 08:55:08;;;;;;;6.57;2.63;;;;;;;17.50;48.94;101378.31;5025079;28;20073;-36
2023/03/21 08:57:35;;;;;;;4.75;2.20;;;;;;;17.50;48.43;101383.66;5026914;28;20167;-36
2023/03/21 09:00:13;;;;;;;5.60;2.65;;;;;;;17.49;48.72;101375.78;5028690;28;20049;-36
2023/03/21 09:02:42;;;;;;;6.18;2.58;;;;;;;17.50;48.43;101382.84;5020364;28;20468;-35
2023/03/21 09:05:10;;;;;;;4.82;2.30;;;;;;;17.51;48.85;101373.78;5024186;28;20484;-36
2023/03/21 09:07:39;;;;;;;6.07;2.28;;;;;;;17.50;48.28;101372.94;5017730;28;20396;-36
2023/03/21 09:10:09;;;;;;;5.40;2.72;;;;;;;17.51;48.39;101369.28;5025402;28;20077;-36
2023/03/21 09:12:51;;;;;;;5.20;2.20;;;;;;;17.53;48.54;101374.53;5026521;28;20049;-35
2023/03/21 09:15:20;;;;;;;5.65;2.72;;;;;;;17.53;48.81;101371.84;5023238;28;20053;-36
2023/03/21 09:17:51;;;;;;;7.32;2.95;;;;;;;17.52;48.95;101376.31;5028249;28;20057;-35
2023/03/21 09:20:29;;;;;;;7.45;2.47;;;;;;;17.53;48.91;101369.16;5025211;28;20049;-35
2023/03/21 09:22:57;;;;;;;5.43;3.03;;;;;;;17.52;48.65;101356.72;5023914;28;20133;-36
2023/03/21 09:25:28;;;;;;;5.55;2.47;;;;;;;17.52;48.88;101356.72;5023909;28;20049;-35
2023/03/21 09:27:55;;;;;;;7.90;2.97;;;;;;;17.51;48.98;101355.88;5028441;28;20055;-37
2023/03/21 09:30:21;;;;;;;5.55;2.63;;;;;;;17.52;48.81;101354.03;5024251;28;20050;-36
2023/03/21 09:32:52;;;;;;;4.72;2.47;;;;;;;17.53;48.57;101353.09;5029265;28;20037;-36
2023/03/21 09:35:19;;;;;;;2.95;2.20;;;;;;;17.52;48.78;101349.53;5023823;28;20120;-36
2023/03/21 09:37:47;;;;;;;4.95;2.72;;;;;;;17.54;48.68;101354.75;5024788;28;20169;-37
2023/03/21 09:40:30;;;;;;;6.22;2.70;;;;;;;17.53;48.96;101353.09;5025668;28;20060;-36
2023/03/21 09:43:14;;;;;;;6.03;2.95;;;;;;;17.54;48.67;101362.81;5024378;28;20048;-37
2023/03/21 09:45:57;;;;;;;5.50;2.38;;;;;;;17.54;48.83;101360.13;5025569;28;20045;-36
2023/03/21 09:48:32;;;;;;;6.82;2.38;;;;;;;17.56;48.42;101355.47;5029652;28;20053;-36
2023/03/21 09:51:01;;;;;;;8.30;3.10;;;;;;;17.56;48.64;101344.75;5026002;28;20053;-37
2023/03/21 09:53:34;;;;;;;7.10;2.55;;;;;;;17.57;48.46;101353.63;5022801;28;20038;-36
2023/03/21 09:56:02;;;;;;;6.80;2.70;;;;;;;17.58;48.75;101345.47;5021201;28;20049;-35
2023/03/21 09:58:38;;;;;;;6.10;2.55;;;;;;;17.58;48.89;101342.78;5023177;28;20574;-36
2023/03/21 10:01:20;;;;;;;5.55;2.80;;;;;;;17.60;49.06;101351.53;5022928;28;20140;-36
2023/03/21 10:03:52;;;;;;;4.50;2.60;;;;;;;17.62;48.82;101359.44;5024729;28;20050;-37
2023/03/21 10:06:27;;;;;;;7.47;2.90;;;;;;;17.63;48.73;101356.59;5025602;28;20461;-37
2023/03/21 10:09:15;;;;;;;5.25;2.50;;;;;;;17.61;48.81;101344.31;5023063;28;20299;-36
2023/03/21 10:11:49;;;;;;;4.70;2.20;;;;;;;17.65;48.74;101353.81;5025677;28;20140;-36
2023/03/21 10:14:29;;;;;;;8.02;2.58;;;;;;;17.65;49.13;101345.78;5025559;28;20220;-36
2023/03/21 10:17:08;;;;;;;8.63;3.03;;;;;;;17.65;48.93;101343.09;5029647;28;20054;-37
2023/03/21 10:19:34;;;;;;;8.93;3.15;;;;;;;17.66;48.68;101342.09;5025144;28;20056;-35
2023/03/21 10:22:01;;;;;;;4.97;2.55;;;;;;;17.66;49.02;101348.31;5026182;28;20052;-36
2023/03/21 10:24:32;;;;;;;6.43;2.58;;;;;;;17.66;48.68;101348.31;5024995;28;20037;-36
2023/03/21 10:27:01;;;;;;;5.93;2.40;;;;;;;17.67;48.54;101343.78;5022327;28;20128;-36
2023/03/21 10:29:40;;;;;;;7.03;2.95;;;;;;;17.68;48.50;101337.44;5028309;28;20054;-38
2023/03/21 10:32:16;;;;;;;6.28;2.78;;;;;;;17.67;48.91;101325.84;5022883;28;20092;-36
2023/03/21 10:34:46;;;;;;;4.72;2.65;;;;;;;17.69;48.67;101318.53;5023286;28;20046;-35
2023/03/21 10:37:15;;;;;;;6.13;2.75;;;;;;;17.69;48.78;101321.22;5023211;28;20058;-36
2023/03/21 10:39:48;;;;;;;6.40;2.70;;;;;;;17.69;48.85;101334.63;5030943;28;20049;-37
2023/03/21 10:42:29;;;;;;;7.57;3.25;;;;;;;17.69;48.90;101318.53;5033427;28;20045;-36
2023/03/21 10:44:56;;;;;;;6.82;2.78;;;;;;;17.73;48.76;101335.19;5033467;28;20049;-36
2023/03/21 10:47:31;;;;;;;6.47;2.60;;;;;;;17.72;48.99;101345.03;5033330;28;20128;-36
2023/03/21 10:50:06;;;;;;;11.20;2.78;;;;;;;17.73;48.82;101341.41;5028619;28;20445;-36
2023/03/21 10:52:40;;;;;;;6.25;3.30;;;;;;;17.74;48.42;101348.47;5029848;28;20670;-36
2023/03/21 10:55:18;;;;;;;7.78;2.60;;;;;;;17.74;48.76;101344.94;5027856;28;20552;-35
2023/03/21 10:57:46;;;;;;;7.38;2.38;;;;;;;17.74;48.66;101348.47;5026553;28;20052;-36
2023/03/21 11:00:20;;;;;;;8.27;2.70;;;;;;;17.73;48.83;101349.44;5028957;28;20049;-36
2023/03/21 11:02:50;;;;;;;7.10;2.40;;;;;;;17.75;48.65;101352.84;5027998;28;20095;-36
2023/03/21 11:05:21;;;;;;;4.05;2.22;;;;;;;17.75;48.66;101352.00;5025706;28;20057;-36
2023/03/21 11:08:16;;;;;;;6.90;2.50;;;;;;;17.75;48.72;101339.44;5027013;28;20046;-36
2023/03/21 11:10:52;;;;;;;4.72;2.15;;;;;;;17.78;48.70;101338.34;5023923;28;20056;-36
2023/03/21 11:13:43;;;;;;;5.68;2.63;;;;;;;17.76;48.84;101319.69;5028706;28;20046;-35
2023/03/21 11:16:26;;;;;;;4.82;2.63;;;;;;;17.78;48.64;101327.59;5025681;28;20081;-35
2023/03/21 11:19:00;;;;;;;6.97;2.80;;;;;;;17.79;48.45;101326.59;5027871;28;20125;-34
2023/03/21 11:21:33;;;;;;;6.10;2.42;;;;;;;17.79;48.82;101320.41;5026127;28;20045;-35
2023/03/21 11:24:02;;;;;;;6.60;2.53;;;;;;;17.79;48.53;101318.56;5029027;28;20049;-35
2023/03/21 11:26:35;;;;;;;5.78;2.67;;;;;;;17.80;48.64;101316.72;5024564;28;20054;-34
2023/03/21 11:29:32;;;;;;;6.22;2.75;;;;;;;17.81;49.03;101291.59;5024914;28;20058;-39
2023/03/21 11:32:09;;;;;;;5.10;2.28;;;;;;;17.83;48.65;101300.38;5023842;28;20060;-35
2023/03/21 11:34:52;;;;;;;3.63;2.25;;;;;;;17.84;48.75;101299.38;5026907;28;20042;-35
2023/03/21 11:37:44;;;;;;;9.07;2.78;;;;;;;17.85;48.53;101298.38;5023786;28;20045;-37
2023/03/21 11:40:28;;;;;;;6.78;3.15;;;;;;;17.87;48.90;101291.06;5026530;28;20052;-36
2023/03/21 11:42:59;;;;;;;8.23;3.05;;;;;;;17.88;48.62;101306.97;5038256;28;20068;-38
2023/03/21 11:45:34;;;;;;;6.20;2.80;;;;;;;17.89;48.81;101314.06;5024091;28;20088;-37
2023/03/21 11:48:11;;;;;;;4.53;2.10;;;;;;;17.89;48.77;101302.47;5030929;28;20046;-37